createdAt,value
2019-01-11T00:02:26.103Z,9.90
2019-01-11T00:07:28.546Z,9.43
2019-01-11T00:12:30.987Z,13.30
2019-01-11T00:17:33.428Z,10.50
2019-01-11T00:22:35.865Z,11.00
2019-01-11T00:27:44.750Z,10.47
2019-01-11T00:32:47.148Z,12.83
2019-01-11T00:37:49.595Z,12.97
2019-01-11T00:42:52.048Z,13.90
2019-01-11T00:47:54.549Z,15.80
2019-01-11T00:52:56.969Z,11.27
2019-01-11T00:57:59.443Z,10.87
2019-01-11T01:03:01.899Z,11.17
2019-01-11T01:08:04.337Z,9.73
2019-01-11T01:13:06.803Z,15.10
2019-01-11T01:18:09.260Z,16.13
2019-01-11T01:23:11.714Z,11.30
2019-01-11T01:28:14.166Z,11.20
2019-01-11T01:33:16.624Z,11.20
2019-01-11T01:38:19.071Z,9.53
2019-01-11T01:43:21.527Z,9.50
2019-01-11T01:48:23.978Z,8.80
2019-01-11T01:53:26.449Z,12.07
2019-01-11T01:58:28.909Z,13.33
2019-01-11T02:03:31.381Z,16.10
2019-01-11T02:08:33.853Z,20.50
2019-01-11T02:13:36.330Z,15.17
2019-01-11T02:18:38.785Z,12.90
2019-01-11T02:23:41.242Z,9.90
2019-01-11T02:28:43.699Z,19.63
2019-01-11T02:33:46.159Z,14.57
2019-01-11T02:38:48.673Z,14.63
2019-01-11T02:43:51.125Z,14.53
2019-01-11T02:48:53.604Z,13.97
2019-01-11T02:53:56.051Z,17.27
2019-01-11T02:58:58.526Z,13.30
2019-01-11T03:04:00.980Z,15.43
2019-01-11T03:09:03.443Z,16.10
2019-01-11T03:14:05.910Z,14.50
2019-01-11T03:19:08.440Z,16.83
2019-01-11T03:24:10.908Z,17.60
2019-01-11T03:29:13.395Z,18.90
2019-01-11T03:34:15.848Z,16.40
2019-01-11T03:39:18.304Z,17.77
2019-01-11T03:44:20.779Z,18.03
2019-01-11T03:49:23.248Z,16.47
2019-01-11T03:54:25.688Z,18.40
2019-01-11T03:59:28.138Z,20.50
2019-01-11T04:04:30.591Z,20.13
2019-01-11T04:09:33.052Z,23.80
2019-01-11T04:14:35.533Z,18.63
2019-01-11T04:19:37.994Z,19.23
2019-01-11T04:24:43.353Z,14.50
2019-01-11T04:29:45.822Z,17.63
2019-01-11T04:34:48.269Z,18.10
2019-01-11T04:39:50.741Z,16.47
2019-01-11T04:44:53.238Z,22.70
2019-01-11T04:49:55.700Z,18.20
2019-01-11T04:54:58.166Z,29.13
2019-01-11T05:00:00.633Z,20.00
2019-01-11T05:05:03.120Z,20.27
2019-01-11T05:10:05.588Z,21.20
2019-01-11T05:15:08.038Z,27.27
2019-01-11T05:20:16.574Z,22.03
2019-01-11T05:25:12.977Z,18.67
2019-01-11T05:30:15.529Z,20.47
2019-01-11T05:35:17.963Z,17.27
2019-01-11T05:40:20.415Z,24.00
2019-01-11T05:45:22.865Z,20.17
2019-01-11T05:50:25.382Z,18.47
2019-01-11T05:55:30.365Z,27.87
2019-01-11T06:00:32.830Z,24.17
2019-01-11T06:05:35.276Z,25.03
2019-01-11T06:10:37.740Z,19.13
2019-01-11T06:15:40.218Z,25.13
2019-01-11T06:20:42.681Z,18.90
2019-01-11T06:25:45.284Z,19.63
2019-01-11T06:36:02.849Z,20.67
2019-01-11T06:41:05.371Z,23.17
2019-01-11T06:46:07.825Z,21.80
2019-01-11T06:51:10.302Z,23.47
2019-01-11T06:56:12.767Z,31.33
2019-01-11T07:01:15.253Z,33.00
2019-01-11T07:06:17.699Z,26.00
2019-01-11T07:11:20.248Z,72.07
2019-01-11T07:16:22.709Z,21.77
2019-01-11T07:21:25.190Z,22.57
2019-01-11T07:26:27.658Z,26.97
2019-01-11T07:31:30.112Z,28.10
2019-01-11T07:36:32.578Z,131.03
2019-01-11T07:41:35.049Z,32.80
2019-01-11T07:46:37.498Z,29.13
2019-01-11T07:51:39.988Z,29.83
2019-01-11T07:56:42.520Z,25.83
2019-01-11T08:01:44.971Z,41.47
2019-01-11T08:06:47.435Z,26.60
2019-01-11T08:11:49.897Z,28.03
2019-01-11T08:16:52.361Z,23.63
2019-01-11T08:21:54.829Z,28.47
2019-01-11T08:26:57.292Z,26.40
2019-01-11T08:31:59.752Z,29.83
2019-01-11T08:37:02.208Z,28.63
2019-01-11T08:42:04.663Z,33.37
2019-01-11T08:47:07.114Z,25.97
2019-01-11T08:52:09.567Z,31.23
2019-01-11T08:57:12.349Z,27.57
2019-01-11T09:02:14.816Z,34.33
2019-01-11T09:07:17.272Z,30.53
2019-01-11T09:12:19.725Z,36.67
2019-01-11T09:17:22.190Z,34.70
2019-01-11T09:22:24.647Z,33.00
2019-01-11T09:27:27.147Z,34.93
2019-01-11T09:32:29.596Z,34.87
2019-01-11T09:37:32.046Z,41.33
2019-01-11T09:42:34.509Z,59.93
2019-01-11T09:47:37.014Z,30.43
2019-01-11T09:52:39.476Z,34.80
2019-01-11T09:57:41.953Z,40.10
2019-01-11T10:02:44.428Z,43.00
2019-01-11T10:07:46.891Z,52.87
2019-01-11T10:12:49.362Z,41.70
2019-01-11T10:17:51.814Z,39.13
2019-01-11T10:22:54.293Z,45.03
2019-01-11T10:27:56.742Z,52.03
2019-01-11T10:32:59.530Z,44.97
2019-01-11T10:38:01.989Z,45.70
2019-01-11T10:43:04.469Z,44.77
2019-01-11T10:48:06.938Z,45.17
2019-01-11T10:53:09.391Z,47.27
2019-01-11T10:58:11.825Z,52.33
2019-01-11T11:03:14.294Z,68.60
2019-01-11T11:08:16.769Z,51.70
2019-01-11T11:13:19.244Z,69.17
2019-01-11T11:18:21.703Z,43.03
2019-01-11T11:23:24.180Z,52.83
2019-01-11T11:28:26.634Z,58.07
2019-01-11T11:33:29.102Z,39.10
2019-01-11T11:38:31.567Z,40.20
2019-01-11T11:43:34.025Z,39.37
2019-01-11T11:48:36.493Z,41.17
2019-01-11T11:53:38.957Z,48.70
2019-01-11T11:58:41.419Z,45.03
2019-01-11T12:03:43.893Z,44.73
2019-01-11T12:08:49.719Z,50.43
2019-01-11T12:13:52.184Z,57.60
2019-01-11T12:18:54.649Z,50.90
2019-01-11T12:23:57.110Z,48.50
2019-01-11T12:28:59.656Z,60.90
2019-01-11T12:34:02.062Z,54.63
2019-01-11T12:39:04.555Z,53.70
2019-01-11T12:44:07.026Z,49.27
2019-01-11T12:49:09.519Z,47.03
2019-01-11T12:54:11.986Z,47.93
2019-01-11T12:59:14.462Z,47.27
2019-01-11T13:04:16.912Z,52.13
2019-01-11T13:09:19.384Z,50.30
2019-01-11T13:14:21.851Z,44.60
2019-01-11T13:19:24.371Z,39.27
2019-01-11T13:24:26.853Z,42.27
2019-01-11T13:29:29.312Z,39.20
2019-01-11T13:34:32.851Z,41.17
2019-01-11T13:39:34.239Z,39.67
2019-01-11T13:44:36.702Z,39.03
2019-01-11T13:49:39.188Z,40.57
2019-01-11T13:54:41.649Z,38.60
2019-01-11T13:59:44.124Z,43.33
2019-01-11T14:04:46.650Z,44.53
2019-01-11T14:09:49.106Z,34.80
2019-01-11T14:14:51.564Z,42.97
2019-01-11T14:19:54.062Z,41.70
2019-01-11T14:24:56.522Z,37.83
2019-01-11T14:29:59.004Z,39.43
2019-01-11T14:35:01.491Z,40.83
2019-01-11T14:40:03.948Z,42.90
2019-01-11T14:45:06.404Z,39.77
2019-01-11T14:50:11.551Z,40.67
2019-01-11T14:55:14.024Z,35.07
2019-01-11T15:00:19.129Z,39.70
2019-01-11T15:05:21.611Z,45.13
2019-01-11T15:10:24.076Z,36.33
2019-01-11T15:15:26.563Z,47.90
2019-01-11T15:20:29.088Z,37.50
2019-01-11T15:25:31.561Z,43.20
2019-01-11T15:30:34.026Z,36.13
2019-01-11T15:35:36.496Z,39.30
2019-01-11T15:40:38.960Z,39.47
2019-01-11T15:45:41.456Z,38.87
2019-01-11T15:50:46.852Z,42.03
2019-01-11T15:55:49.345Z,43.50
2019-01-11T16:00:51.823Z,52.50
2019-01-11T16:06:15.601Z,53.53
2019-01-11T16:11:29.960Z,47.47
2019-01-11T16:16:32.441Z,59.07
2019-01-11T16:21:34.901Z,42.77
2019-01-11T16:26:37.435Z,46.43
2019-01-11T16:31:39.880Z,46.87
2019-01-11T16:36:42.347Z,46.60
2019-01-11T16:41:44.824Z,45.87
2019-01-11T16:46:47.293Z,44.00
2019-01-11T16:51:49.763Z,63.20
2019-01-11T16:56:52.230Z,52.87
2019-01-11T17:01:54.711Z,51.40
2019-01-11T17:06:57.165Z,45.30
2019-01-11T17:11:59.625Z,42.93
2019-01-11T17:17:02.111Z,52.67
2019-01-11T17:22:04.588Z,42.53
2019-01-11T17:27:07.059Z,42.73
2019-01-11T17:32:09.524Z,35.40
2019-01-11T17:37:12.014Z,37.97
2019-01-11T17:42:14.489Z,51.67
2019-01-11T17:47:16.969Z,37.50
2019-01-11T17:52:19.433Z,36.67
2019-01-11T17:57:21.935Z,40.27
2019-01-11T18:02:24.400Z,37.80
2019-01-11T18:07:26.874Z,41.50
2019-01-11T18:12:29.330Z,40.83
2019-01-11T18:17:31.818Z,43.60
2019-01-11T18:22:34.290Z,38.43
2019-01-11T18:27:36.773Z,45.13
2019-01-11T18:32:39.257Z,44.33
2019-01-11T18:37:41.733Z,49.60
2019-01-11T18:42:44.202Z,62.97
2019-01-11T18:47:46.693Z,67.90
2019-01-11T18:52:49.179Z,55.17
2019-01-11T18:57:51.647Z,49.13
2019-01-11T19:02:54.119Z,54.43
2019-01-11T19:07:56.578Z,59.40
2019-01-11T19:13:01.912Z,56.03
2019-01-11T19:18:04.356Z,56.53
2019-01-11T19:23:06.889Z,51.77
2019-01-11T19:28:09.371Z,53.83
2019-01-11T19:33:11.852Z,53.70
2019-01-11T19:38:14.380Z,57.60
2019-01-11T19:43:16.822Z,58.27
2019-01-11T19:48:19.306Z,58.03
2019-01-11T19:53:27.405Z,55.93
2019-01-11T19:58:24.279Z,61.77
2019-01-11T20:03:26.781Z,64.10
2019-01-11T20:08:29.245Z,53.20
2019-01-11T20:13:31.714Z,54.17
2019-01-11T20:18:34.249Z,56.30
2019-01-11T20:23:37.034Z,54.50
2019-01-11T20:28:39.137Z,54.60
2019-01-11T20:33:41.619Z,56.07
2019-01-11T20:38:44.089Z,54.97
2019-01-11T20:43:46.550Z,49.70
2019-01-11T20:48:49.028Z,45.97
2019-01-11T20:53:51.489Z,53.73
2019-01-11T20:58:54.000Z,50.47
2019-01-11T21:03:56.458Z,57.93
2019-01-11T21:08:58.937Z,54.47
2019-01-11T21:14:01.404Z,54.83
2019-01-11T21:19:03.875Z,53.67
2019-01-11T21:24:06.408Z,57.13
2019-01-11T21:29:08.926Z,55.97
2019-01-11T21:34:11.403Z,55.13
2019-01-11T21:39:13.891Z,57.40
2019-01-11T21:44:16.334Z,58.80
2019-01-11T21:49:18.856Z,64.87
2019-01-11T21:54:21.286Z,64.50
2019-01-11T21:59:23.789Z,56.50
2019-01-11T22:04:26.261Z,65.00
2019-01-11T22:09:28.749Z,63.67
2019-01-11T22:14:31.213Z,62.27
2019-01-11T22:19:33.728Z,59.67
2019-01-11T22:24:36.183Z,61.70
2019-01-11T22:29:38.654Z,68.97
2019-01-11T22:34:41.124Z,66.97
2019-01-11T22:39:43.648Z,66.17
2019-01-11T22:44:46.125Z,69.17
2019-01-11T22:49:48.572Z,61.37
2019-01-11T22:54:51.036Z,60.77
2019-01-11T22:59:53.498Z,71.00
2019-01-11T23:04:55.976Z,68.60
2019-01-11T23:09:58.434Z,69.07
2019-01-11T23:15:00.907Z,65.53
2019-01-11T23:20:03.387Z,70.40
2019-01-11T23:25:05.847Z,66.37
2019-01-11T23:30:08.284Z,60.47
2019-01-11T23:35:10.739Z,71.90
2019-01-11T23:40:13.206Z,70.70
2019-01-11T23:45:15.679Z,70.97
2019-01-11T23:50:18.147Z,70.53
2019-01-11T23:55:20.607Z,71.60
